createdAt,value
2023-04-06T00:01:29.642Z,5.18
2023-04-06T00:04:02.598Z,5.18
2023-04-06T00:06:35.661Z,5.07
2023-04-06T00:09:08.886Z,5.15
2023-04-06T00:11:41.948Z,5.12
2023-04-06T00:14:15.000Z,5.11
2023-04-06T00:16:47.938Z,5.07
2023-04-06T00:19:20.664Z,4.96
2023-04-06T00:21:53.075Z,5.03
2023-04-06T00:24:25.564Z,4.99
2023-04-06T00:26:58.235Z,4.88
2023-04-06T00:29:30.406Z,4.94
2023-04-06T00:32:02.906Z,4.91
2023-04-06T00:34:35.818Z,4.91
2023-04-06T00:37:08.424Z,4.89
2023-04-06T00:39:40.824Z,4.87
2023-04-06T00:42:15.919Z,4.87
2023-04-06T00:44:48.288Z,4.82
2023-04-06T00:47:20.768Z,4.81
2023-04-06T00:49:54.040Z,4.78
2023-04-06T00:52:27.048Z,4.79
2023-04-06T00:55:00.345Z,4.73
2023-04-06T00:57:34.970Z,4.77
2023-04-06T01:00:09.758Z,4.75
2023-04-06T01:02:42.314Z,4.73
2023-04-06T01:05:15.250Z,4.73
2023-04-06T01:07:57.168Z,4.63
2023-04-06T01:10:32.873Z,4.67
2023-04-06T01:13:14.869Z,4.66
2023-04-06T01:15:57.931Z,4.65
2023-04-06T01:18:39.748Z,4.63
2023-04-06T01:21:21.718Z,4.60
2023-04-06T01:24:14.459Z,4.50
2023-04-06T01:27:03.035Z,4.56
2023-04-06T01:29:45.601Z,4.57
2023-04-06T01:32:20.029Z,4.55
2023-04-06T01:34:55.910Z,4.54
2023-04-06T01:37:28.611Z,4.49
2023-04-06T01:40:03.460Z,4.46
2023-04-06T01:42:46.359Z,4.35
2023-04-06T01:45:22.119Z,4.40
2023-04-06T01:47:54.746Z,4.40
2023-04-06T01:50:30.024Z,4.39
2023-04-06T01:53:02.512Z,4.38
2023-04-06T01:55:35.559Z,4.38
2023-04-06T01:58:23.181Z,4.37
2023-04-06T02:00:55.684Z,4.34
2023-04-06T02:03:28.002Z,4.31
2023-04-06T02:06:07.582Z,4.19
2023-04-06T02:08:43.260Z,4.18
2023-04-06T02:11:16.248Z,4.25
2023-04-06T02:13:53.131Z,4.26
2023-04-06T02:16:25.969Z,4.25
2023-04-06T02:18:58.702Z,4.24
2023-04-06T02:21:31.209Z,4.22
2023-04-06T02:24:04.799Z,4.21
2023-04-06T02:26:37.082Z,4.19
2023-04-06T02:29:09.555Z,4.16
2023-04-06T02:31:42.069Z,4.14
2023-04-06T02:34:18.834Z,4.12
2023-04-06T02:36:54.003Z,4.10
2023-04-06T02:39:26.504Z,4.08
2023-04-06T02:41:59.904Z,4.06
2023-04-06T02:44:32.644Z,4.05
2023-04-06T02:47:05.075Z,4.05
2023-04-06T02:49:37.734Z,4.03
2023-04-06T02:52:10.462Z,4.00
2023-04-06T02:54:43.549Z,3.92
2023-04-06T02:57:15.995Z,3.98
2023-04-06T02:59:50.429Z,3.98
2023-04-06T03:02:30.089Z,3.96
2023-04-06T03:05:10.104Z,3.95
2023-04-06T03:07:46.143Z,3.94
2023-04-06T03:10:28.354Z,3.90
2023-04-06T03:13:01.387Z,3.87
2023-04-06T03:15:51.799Z,3.84
2023-04-06T03:18:27.262Z,3.85
2023-04-06T03:21:02.334Z,3.86
2023-04-06T03:23:41.240Z,3.85
2023-04-06T03:26:13.936Z,3.84
2023-04-06T03:28:46.394Z,3.83
2023-04-06T03:31:19.826Z,3.84
2023-04-06T03:33:58.693Z,3.80
2023-04-06T03:36:34.049Z,3.82
2023-04-06T03:39:07.176Z,3.80
2023-04-06T03:41:41.711Z,3.80
2023-04-06T03:44:23.732Z,3.83
2023-04-06T03:46:56.535Z,3.80
2023-04-06T03:49:29.754Z,3.78
2023-04-06T03:52:03.462Z,3.66
2023-04-06T03:54:36.418Z,3.66
2023-04-06T03:57:09.135Z,3.74
2023-04-06T03:59:42.139Z,3.75
2023-04-06T04:02:14.644Z,3.72
2023-04-06T04:04:47.147Z,3.73
2023-04-06T04:07:19.537Z,3.72
2023-04-06T04:09:52.333Z,3.69
2023-04-06T04:12:25.258Z,3.71
2023-04-06T04:14:58.294Z,3.68
2023-04-06T04:17:33.962Z,3.68
2023-04-06T04:20:07.987Z,3.67
2023-04-06T04:22:40.485Z,3.66
2023-04-06T04:25:13.777Z,3.66
2023-04-06T04:27:51.079Z,3.65
2023-04-06T04:30:24.422Z,3.64
2023-04-06T04:32:56.967Z,3.64
2023-04-06T04:35:30.705Z,3.64
2023-04-06T04:38:04.043Z,3.64
2023-04-06T04:40:37.123Z,3.65
2023-04-06T04:43:13.545Z,3.65
2023-04-06T04:45:46.611Z,3.63
2023-04-06T04:48:45.339Z,3.63
2023-04-06T04:51:20.704Z,3.61
2023-04-06T04:54:09.116Z,3.62
2023-04-06T04:56:41.804Z,3.63
2023-04-06T04:59:26.028Z,3.65
2023-04-06T05:02:03.683Z,3.65
2023-04-06T05:04:43.919Z,3.62
2023-04-06T05:07:19.780Z,3.63
2023-04-06T05:09:53.370Z,3.66
2023-04-06T05:12:28.058Z,3.66
2023-04-06T05:15:10.711Z,3.69
2023-04-06T05:17:42.214Z,3.70
2023-04-06T05:20:17.497Z,3.62
2023-04-06T05:22:53.989Z,3.55
2023-04-06T05:25:26.631Z,3.76
2023-04-06T05:28:00.949Z,3.79
2023-04-06T05:30:39.447Z,3.81
2023-04-06T05:33:12.352Z,3.84
2023-04-06T05:36:08.427Z,3.88
2023-04-06T05:38:43.749Z,3.91
2023-04-06T05:41:55.042Z,3.96
2023-04-06T05:44:50.262Z,3.99
2023-04-06T05:47:23.293Z,4.02
2023-04-06T05:50:02.566Z,4.08
2023-04-06T05:52:39.061Z,4.09
2023-04-06T05:55:12.207Z,4.15
2023-04-06T05:57:46.632Z,4.19
2023-04-06T06:00:20.386Z,4.23
2023-04-06T06:02:58.335Z,4.29
2023-04-06T06:05:34.277Z,4.32
2023-04-06T06:08:12.229Z,4.36
2023-04-06T06:10:45.421Z,4.42
2023-04-06T06:13:18.528Z,4.44
2023-04-06T06:15:51.462Z,4.46
2023-04-06T06:18:24.927Z,4.52
2023-04-06T06:20:59.186Z,4.55
2023-04-06T06:23:32.116Z,4.61
2023-04-06T06:26:04.721Z,4.64
2023-04-06T06:28:38.149Z,4.70
2023-04-06T06:31:11.571Z,4.74
2023-04-06T06:33:44.669Z,4.79
2023-04-06T06:36:17.566Z,4.79
2023-04-06T06:38:50.412Z,4.86
2023-04-06T06:41:24.436Z,4.90
2023-04-06T06:43:56.796Z,4.87
2023-04-06T06:46:29.879Z,4.96
2023-04-06T06:49:02.542Z,5.05
2023-04-06T06:51:35.812Z,5.09
2023-04-06T06:54:09.422Z,5.19
2023-04-06T06:56:42.335Z,5.26
2023-04-06T06:59:15.241Z,5.48
2023-04-06T07:01:48.041Z,5.52
2023-04-06T07:04:20.855Z,5.48
2023-04-06T07:06:53.820Z,5.64
2023-04-06T07:09:27.653Z,5.73
2023-04-06T07:12:00.057Z,5.83
2023-04-06T07:14:33.847Z,5.90
2023-04-06T07:17:06.706Z,5.89
2023-04-06T07:19:39.263Z,5.94
2023-04-06T07:22:12.243Z,6.02
2023-04-06T07:24:45.354Z,6.20
2023-04-06T07:27:18.471Z,6.19
2023-04-06T07:29:51.382Z,6.31
2023-04-06T07:32:24.439Z,6.35
2023-04-06T07:34:58.195Z,6.41
2023-04-06T07:37:31.501Z,6.43
2023-04-06T07:40:04.405Z,6.42
2023-04-06T07:42:37.173Z,6.53
2023-04-06T07:45:13.098Z,6.62
2023-04-06T07:47:44.027Z,6.58
2023-04-06T07:50:17.310Z,6.80
2023-04-06T07:52:49.865Z,6.83
2023-04-06T07:55:22.443Z,6.99
2023-04-06T07:57:54.630Z,7.13
2023-04-06T08:00:27.652Z,7.30
2023-04-06T08:03:00.519Z,7.31
2023-04-06T08:05:33.635Z,7.37
2023-04-06T08:08:06.295Z,7.50
2023-04-06T08:10:39.048Z,7.59
2023-04-06T08:13:11.596Z,7.63
2023-04-06T08:15:44.235Z,7.71
2023-04-06T08:18:17.106Z,7.65
2023-04-06T08:20:49.981Z,7.83
2023-04-06T08:23:22.580Z,7.90
2023-04-06T08:25:55.342Z,7.98
2023-04-06T08:28:27.642Z,8.07
2023-04-06T08:31:00.587Z,8.03
2023-04-06T08:33:36.178Z,8.10
2023-04-06T08:36:13.865Z,8.15
2023-04-06T08:38:46.732Z,8.30
2023-04-06T08:41:20.231Z,8.31
2023-04-06T08:43:58.671Z,8.37
2023-04-06T08:46:33.100Z,8.48
2023-04-06T08:49:07.888Z,8.64
2023-04-06T08:51:39.594Z,8.75
2023-04-06T08:54:11.908Z,8.79
2023-04-06T08:56:45.307Z,8.88
2023-04-06T08:59:17.927Z,8.96
2023-04-06T09:01:51.207Z,9.02
2023-04-06T09:04:24.005Z,9.08
2023-04-06T09:06:57.056Z,9.11
2023-04-06T09:09:29.860Z,9.11
2023-04-06T09:12:06.895Z,9.14
2023-04-06T09:14:41.329Z,9.24
2023-04-06T09:17:24.718Z,9.19
2023-04-06T09:19:58.958Z,9.41
2023-04-06T09:22:39.602Z,9.35
2023-04-06T09:25:20.574Z,9.52
2023-04-06T09:28:03.116Z,9.64
2023-04-06T09:30:37.092Z,9.79
2023-04-06T09:33:09.437Z,9.95
2023-04-06T09:35:42.153Z,9.95
2023-04-06T09:38:16.110Z,9.74
2023-04-06T09:41:01.096Z,9.98
2023-04-06T09:43:34.416Z,10.08
2023-04-06T09:46:08.015Z,10.06
2023-04-06T09:48:41.254Z,10.24
2023-04-06T09:51:17.522Z,10.31
2023-04-06T09:53:54.714Z,10.30
2023-04-06T09:56:30.188Z,10.23
2023-04-06T09:59:10.534Z,10.47
2023-04-06T10:01:43.920Z,10.58
2023-04-06T10:04:33.001Z,10.80
2023-04-06T10:07:07.738Z,10.86
2023-04-06T10:09:39.759Z,10.89
2023-04-06T10:12:14.905Z,11.04
2023-04-06T10:14:47.875Z,11.13
2023-04-06T10:17:20.748Z,11.22
2023-04-06T10:19:56.514Z,11.13
2023-04-06T10:22:35.221Z,11.25
2023-04-06T10:25:09.951Z,11.15
2023-04-06T10:27:40.796Z,11.34
2023-04-06T10:30:18.240Z,11.31
2023-04-06T10:32:51.079Z,11.21
2023-04-06T10:35:25.050Z,11.09
2023-04-06T10:38:05.957Z,11.24
2023-04-06T10:40:42.856Z,11.38
2023-04-06T10:43:20.759Z,11.53
2023-04-06T10:45:59.643Z,11.63
2023-04-06T10:48:42.680Z,11.73
2023-04-06T10:51:17.242Z,11.88
2023-04-06T10:53:51.115Z,12.01
2023-04-06T10:56:29.119Z,12.03
2023-04-06T10:59:01.686Z,12.16
2023-04-06T11:01:34.157Z,12.33
2023-04-06T11:04:09.608Z,12.47
2023-04-06T11:06:42.437Z,12.47
2023-04-06T11:09:24.985Z,12.60
2023-04-06T11:11:58.472Z,12.50
2023-04-06T11:14:31.233Z,12.23
2023-04-06T11:17:03.960Z,12.12
2023-04-06T11:19:37.933Z,12.40
2023-04-06T11:22:12.301Z,12.47
2023-04-06T11:24:44.820Z,12.58
2023-04-06T11:27:18.456Z,12.75
2023-04-06T11:29:52.163Z,12.73
2023-04-06T11:32:27.717Z,12.72
2023-04-06T11:35:01.819Z,12.88
2023-04-06T11:37:35.184Z,12.68
2023-04-06T11:40:12.441Z,12.78
2023-04-06T11:42:53.974Z,12.41
2023-04-06T11:45:27.394Z,12.48
2023-04-06T11:48:03.660Z,12.73
2023-04-06T11:50:37.384Z,12.91
2023-04-06T11:53:09.622Z,12.96
2023-04-06T11:55:46.170Z,13.15
2023-04-06T11:58:19.303Z,13.24
2023-04-06T12:00:51.989Z,12.84
2023-04-06T12:03:24.749Z,12.57
2023-04-06T12:05:58.806Z,12.61
2023-04-06T12:08:32.291Z,12.83
2023-04-06T12:11:05.118Z,12.96
2023-04-06T12:13:38.052Z,13.06
2023-04-06T12:16:11.446Z,13.06
2023-04-06T12:18:43.983Z,13.21
2023-04-06T12:21:16.827Z,13.15
2023-04-06T12:23:49.738Z,13.08
2023-04-06T12:26:22.136Z,13.21
2023-04-06T12:28:54.882Z,13.33
2023-04-06T12:31:27.705Z,13.38
2023-04-06T12:34:00.352Z,13.39
2023-04-06T12:36:33.101Z,13.33
2023-04-06T12:39:06.008Z,13.27
2023-04-06T12:41:41.499Z,13.19
2023-04-06T12:44:13.986Z,13.07
2023-04-06T12:46:47.894Z,13.19
2023-04-06T12:49:20.784Z,13.20
2023-04-06T12:51:53.467Z,13.23
2023-04-06T12:54:27.815Z,13.27
2023-04-06T12:57:00.397Z,13.34
2023-04-06T12:59:36.698Z,13.47
2023-04-06T13:02:09.417Z,13.53
2023-04-06T13:04:41.986Z,13.44
2023-04-06T13:07:15.472Z,13.41
2023-04-06T13:09:50.547Z,13.38
2023-04-06T13:12:23.043Z,13.46
2023-04-06T13:14:55.795Z,13.52
2023-04-06T13:17:30.984Z,13.54
2023-04-06T13:20:02.369Z,13.48
2023-04-06T13:22:35.461Z,13.59
2023-04-06T13:25:09.149Z,13.62
2023-04-06T13:27:42.126Z,13.71
2023-04-06T13:30:17.862Z,13.72
2023-04-06T13:32:50.881Z,13.75
2023-04-06T13:35:23.960Z,13.68
2023-04-06T13:37:56.495Z,13.65
2023-04-06T13:40:29.035Z,13.76
2023-04-06T13:43:01.878Z,13.77
2023-04-06T13:45:35.215Z,13.85
2023-04-06T13:48:08.741Z,13.72
2023-04-06T13:50:41.834Z,13.78
2023-04-06T13:53:14.413Z,13.81
2023-04-06T13:55:54.108Z,14.08
2023-04-06T13:58:26.742Z,14.14
2023-04-06T14:01:04.089Z,14.17
2023-04-06T14:03:36.795Z,14.10
2023-04-06T14:06:29.703Z,14.10
2023-04-06T14:09:03.385Z,14.41
2023-04-06T14:11:36.440Z,14.63
2023-04-06T14:14:09.387Z,14.60
2023-04-06T14:16:45.141Z,14.50
2023-04-06T14:19:19.918Z,14.17
2023-04-06T14:21:52.112Z,14.08
2023-04-06T14:24:24.930Z,14.13
2023-04-06T14:26:57.623Z,14.16
2023-04-06T14:29:30.428Z,13.93
2023-04-06T14:32:03.215Z,14.23
2023-04-06T14:34:35.772Z,14.37
2023-04-06T14:37:08.298Z,14.41
2023-04-06T14:39:40.587Z,14.32
2023-04-06T14:42:13.165Z,14.04
2023-04-06T14:44:46.711Z,13.85
2023-04-06T14:47:21.698Z,14.05
2023-04-06T14:49:55.625Z,14.01
2023-04-06T14:52:29.941Z,13.83
2023-04-06T14:55:04.656Z,13.71
2023-04-06T14:57:37.452Z,13.56
2023-04-06T15:00:11.870Z,13.33
2023-04-06T15:02:45.248Z,13.16
2023-04-06T15:05:17.790Z,12.91
2023-04-06T15:07:50.117Z,12.76
2023-04-06T15:10:22.359Z,12.67
2023-04-06T15:12:55.261Z,12.30
2023-04-06T15:15:27.850Z,12.46
2023-04-06T15:18:03.613Z,12.42
2023-04-06T15:20:37.142Z,12.46
2023-04-06T15:23:09.493Z,12.33
2023-04-06T15:25:42.802Z,12.35
2023-04-06T15:28:15.071Z,12.28
2023-04-06T15:30:47.804Z,12.32
2023-04-06T15:33:21.831Z,12.20
2023-04-06T15:35:54.375Z,12.15
2023-04-06T15:38:27.026Z,12.06
2023-04-06T15:40:59.601Z,12.11
2023-04-06T15:43:31.931Z,12.08
2023-04-06T15:46:04.795Z,11.90
2023-04-06T15:48:37.832Z,11.98
2023-04-06T15:51:10.806Z,12.01
2023-04-06T15:53:43.134Z,11.97
2023-04-06T15:56:15.906Z,11.98
2023-04-06T15:58:48.592Z,11.89
2023-04-06T16:01:21.605Z,11.87
2023-04-06T16:03:54.219Z,11.87
2023-04-06T16:06:27.524Z,11.76
2023-04-06T16:08:59.917Z,11.81
2023-04-06T16:11:33.625Z,11.77
2023-04-06T16:14:06.420Z,11.77
2023-04-06T16:16:39.210Z,11.78
2023-04-06T16:19:11.895Z,11.69
2023-04-06T16:21:44.543Z,11.61
2023-04-06T16:24:16.970Z,11.57
2023-04-06T16:26:50.265Z,11.48
2023-04-06T16:29:23.169Z,11.53
2023-04-06T16:31:56.028Z,11.61
2023-04-06T16:34:32.099Z,11.60
2023-04-06T16:37:04.725Z,11.63
2023-04-06T16:39:37.135Z,11.66
2023-04-06T16:42:09.612Z,11.66
2023-04-06T16:44:42.229Z,11.59
2023-04-06T16:47:14.691Z,11.63
2023-04-06T16:49:49.939Z,11.67
2023-04-06T16:52:23.286Z,11.60
2023-04-06T16:54:55.694Z,11.44
2023-04-06T16:57:29.883Z,11.48
2023-04-06T17:00:04.376Z,11.46
2023-04-06T17:02:37.401Z,11.41
2023-04-06T17:05:11.426Z,11.41
2023-04-06T17:07:43.927Z,11.36
2023-04-06T17:10:17.652Z,11.32
2023-04-06T17:12:52.393Z,11.22
2023-04-06T17:15:26.481Z,11.11
2023-04-06T17:17:58.856Z,11.03
2023-04-06T17:20:31.355Z,10.90
2023-04-06T17:23:04.043Z,10.76
2023-04-06T17:25:37.123Z,10.89
2023-04-06T17:28:09.545Z,10.86
2023-04-06T17:30:42.873Z,10.75
2023-04-06T17:33:15.949Z,10.66
2023-04-06T17:35:48.655Z,10.58
2023-04-06T17:38:21.274Z,10.59
2023-04-06T17:40:54.506Z,10.49
2023-04-06T17:43:27.137Z,10.47
2023-04-06T17:45:59.522Z,10.46
2023-04-06T17:48:32.239Z,10.45
2023-04-06T17:51:04.876Z,10.40
2023-04-06T17:53:37.680Z,10.37
2023-04-06T17:56:10.241Z,10.33
2023-04-06T17:58:43.150Z,10.30
2023-04-06T18:01:16.296Z,10.18
2023-04-06T18:03:48.521Z,10.22
2023-04-06T18:06:21.622Z,10.19
2023-04-06T18:08:55.303Z,10.15
2023-04-06T18:11:29.631Z,10.16
2023-04-06T18:14:03.047Z,10.15
2023-04-06T18:16:35.712Z,10.02
2023-04-06T18:19:08.182Z,10.06
2023-04-06T18:21:40.957Z,9.99
2023-04-06T18:24:27.208Z,9.96
2023-04-06T18:27:05.992Z,9.91
2023-04-06T18:29:38.524Z,9.87
2023-04-06T18:32:11.064Z,9.81
2023-04-06T18:34:43.441Z,9.79
2023-04-06T18:37:16.469Z,9.76
2023-04-06T18:39:48.649Z,9.66
2023-04-06T18:42:21.380Z,9.63
2023-04-06T18:44:54.148Z,9.59
2023-04-06T18:47:26.750Z,9.57
2023-04-06T18:49:59.363Z,9.53
2023-04-06T18:52:32.239Z,9.49
2023-04-06T18:55:05.508Z,9.45
2023-04-06T18:57:38.144Z,9.43
2023-04-06T19:00:12.583Z,9.40
2023-04-06T19:02:45.512Z,9.39
2023-04-06T19:05:18.587Z,9.39
2023-04-06T19:07:52.702Z,9.38
2023-04-06T19:10:25.245Z,9.38
2023-04-06T19:12:57.702Z,9.38
2023-04-06T19:15:30.271Z,9.40
2023-04-06T19:18:02.901Z,9.41
2023-04-06T19:20:37.683Z,9.42
2023-04-06T19:23:10.663Z,9.36
2023-04-06T19:25:45.451Z,9.42
2023-04-06T19:28:17.987Z,9.43
2023-04-06T19:30:50.853Z,9.44
2023-04-06T19:33:23.217Z,9.44
2023-04-06T19:35:55.737Z,9.46
2023-04-06T19:38:29.087Z,9.47
2023-04-06T19:41:04.777Z,9.48
2023-04-06T19:43:37.616Z,9.49
2023-04-06T19:46:10.405Z,9.49
2023-04-06T19:48:43.313Z,9.49
2023-04-06T19:51:15.597Z,9.51
2023-04-06T19:53:48.333Z,9.52
2023-04-06T19:56:20.810Z,9.52
2023-04-06T19:58:53.381Z,9.53
2023-04-06T20:01:26.041Z,9.51
2023-04-06T20:03:58.519Z,9.52
2023-04-06T20:06:32.763Z,9.54
2023-04-06T20:09:05.231Z,9.52
2023-04-06T20:11:38.133Z,9.54
2023-04-06T20:14:10.544Z,9.55
2023-04-06T20:16:42.882Z,9.58
2023-04-06T20:19:15.544Z,9.58
2023-04-06T20:21:48.819Z,9.60
2023-04-06T20:24:21.737Z,9.59
2023-04-06T20:26:54.406Z,9.59
2023-04-06T20:29:27.376Z,9.59
2023-04-06T20:32:01.524Z,9.60
2023-04-06T20:34:33.988Z,9.59
2023-04-06T20:37:06.417Z,9.61
2023-04-06T20:39:40.614Z,9.61
2023-04-06T20:42:13.408Z,9.64
2023-04-06T20:44:46.892Z,9.65
2023-04-06T20:47:19.695Z,9.64
2023-04-06T20:49:51.811Z,9.64
2023-04-06T20:52:24.138Z,9.66
2023-04-06T20:55:03.627Z,9.66
2023-04-06T20:57:36.489Z,9.64
2023-04-06T21:00:12.327Z,9.59
2023-04-06T21:02:44.795Z,9.56
2023-04-06T21:05:18.409Z,9.51
2023-04-06T21:07:51.382Z,9.55
2023-04-06T21:10:24.235Z,9.54
2023-04-06T21:12:56.526Z,9.52
2023-04-06T21:15:28.971Z,9.58
2023-04-06T21:18:01.334Z,9.59
2023-04-06T21:20:35.054Z,9.53
2023-04-06T21:23:07.997Z,9.57
2023-04-06T21:25:41.222Z,9.57
2023-04-06T21:28:14.400Z,9.59
2023-04-06T21:30:47.050Z,9.60
2023-04-06T21:33:19.448Z,9.55
2023-04-06T21:35:52.038Z,9.60
2023-04-06T21:38:24.403Z,9.65
2023-04-06T21:40:59.071Z,9.66
2023-04-06T21:43:32.036Z,9.62
2023-04-06T21:46:04.964Z,9.66
2023-04-06T21:48:37.437Z,9.71
2023-04-06T21:51:09.839Z,9.71
2023-04-06T21:53:42.418Z,9.60
2023-04-06T21:56:15.311Z,9.67
2023-04-06T21:58:47.945Z,9.64
2023-04-06T22:01:20.176Z,9.64
2023-04-06T22:03:53.107Z,9.60
2023-04-06T22:06:25.925Z,9.62
2023-04-06T22:08:58.299Z,9.62
2023-04-06T22:11:30.629Z,9.68
2023-04-06T22:14:03.186Z,9.69
2023-04-06T22:16:35.866Z,9.70
2023-04-06T22:19:08.490Z,9.68
2023-04-06T22:21:41.240Z,9.60
2023-04-06T22:24:13.982Z,9.66
2023-04-06T22:26:46.572Z,9.66
2023-04-06T22:29:18.933Z,9.65
2023-04-06T22:31:51.200Z,9.60
2023-04-06T22:34:23.536Z,9.61
2023-04-06T22:36:57.238Z,9.58
2023-04-06T22:39:29.535Z,9.59
2023-04-06T22:42:01.729Z,9.57
2023-04-06T22:44:33.861Z,9.52
2023-04-06T22:47:06.218Z,9.41
2023-04-06T22:49:38.593Z,9.44
2023-04-06T22:52:11.044Z,9.44
2023-04-06T22:54:43.409Z,9.42
2023-04-06T22:57:16.135Z,9.42
2023-04-06T22:59:48.523Z,9.38
2023-04-06T23:02:20.937Z,9.18
2023-04-06T23:04:53.544Z,9.12
2023-04-06T23:07:26.001Z,9.18
2023-04-06T23:09:58.280Z,9.14
2023-04-06T23:12:30.622Z,9.22
2023-04-06T23:15:04.204Z,9.25
2023-04-06T23:17:37.111Z,9.17
2023-04-06T23:20:11.572Z,9.21
2023-04-06T23:22:43.976Z,9.16
2023-04-06T23:25:16.322Z,9.07
2023-04-06T23:27:48.839Z,9.06
2023-04-06T23:30:21.617Z,8.91
2023-04-06T23:32:53.998Z,8.78
2023-04-06T23:35:26.735Z,8.65
2023-04-06T23:37:59.739Z,8.52
2023-04-06T23:40:32.774Z,8.61
2023-04-06T23:43:05.064Z,8.63
2023-04-06T23:45:40.393Z,8.69
2023-04-06T23:48:12.948Z,8.71
2023-04-06T23:50:45.188Z,8.76
2023-04-06T23:53:17.442Z,8.76
2023-04-06T23:55:49.696Z,8.74
2023-04-06T23:58:22.157Z,8.68
